sensor_id;sensor_type;location;lat;lon;timestamp;temperature;humidity
16198;DHT22;8206;51.440;6.914;2023-04-24T00:00:47;10.80;99.90
16198;DHT22;8206;51.440;6.914;2023-04-24T00:03:14;10.80;99.90
16198;DHT22;8206;51.440;6.914;2023-04-24T00:05:40;10.80;99.90
16198;DHT22;8206;51.440;6.914;2023-04-24T00:08:07;10.80;99.90
16198;DHT22;8206;51.440;6.914;2023-04-24T00:10:35;10.90;99.90
16198;DHT22;8206;51.440;6.914;2023-04-24T00:13:02;10.90;99.90
16198;DHT22;8206;51.440;6.914;2023-04-24T00:15:29;10.90;99.90
16198;DHT22;8206;51.440;6.914;2023-04-24T00:17:56;10.90;99.90
16198;DHT22;8206;51.440;6.914;2023-04-24T00:20:23;10.90;99.90
16198;DHT22;8206;51.440;6.914;2023-04-24T00:22:49;10.90;99.90
16198;DHT22;8206;51.440;6.914;2023-04-24T00:25:16;10.80;99.90
16198;DHT22;8206;51.440;6.914;2023-04-24T00:27:44;10.80;99.90
16198;DHT22;8206;51.440;6.914;2023-04-24T00:30:11;10.80;99.90
16198;DHT22;8206;51.440;6.914;2023-04-24T00:32:38;10.90;99.90
16198;DHT22;8206;51.440;6.914;2023-04-24T00:35:06;10.80;99.90
16198;DHT22;8206;51.440;6.914;2023-04-24T00:37:33;10.80;99.90
16198;DHT22;8206;51.440;6.914;2023-04-24T00:39:59;10.80;99.90
16198;DHT22;8206;51.440;6.914;2023-04-24T00:42:26;10.70;99.90
16198;DHT22;8206;51.440;6.914;2023-04-24T00:44:54;10.70;99.90
16198;DHT22;8206;51.440;6.914;2023-04-24T00:47:22;10.60;99.90
16198;DHT22;8206;51.440;6.914;2023-04-24T00:49:50;10.50;99.90
16198;DHT22;8206;51.440;6.914;2023-04-24T00:52:16;10.30;99.90
16198;DHT22;8206;51.440;6.914;2023-04-24T00:54:43;10.10;99.90
16198;DHT22;8206;51.440;6.914;2023-04-24T00:57:10;10.00;99.90
16198;DHT22;8206;51.440;6.914;2023-04-24T00:59:37;9.90;99.90
16198;DHT22;8206;51.440;6.914;2023-04-24T01:02:07;9.80;99.90
16198;DHT22;8206;51.440;6.914;2023-04-24T01:04:36;9.80;99.90
16198;DHT22;8206;51.440;6.914;2023-04-24T01:07:03;9.90;99.90
16198;DHT22;8206;51.440;6.914;2023-04-24T01:09:35;10.00;99.90
16198;DHT22;8206;51.440;6.914;2023-04-24T01:12:02;10.00;99.90
16198;DHT22;8206;51.440;6.914;2023-04-24T01:14:29;9.90;99.90
16198;DHT22;8206;51.440;6.914;2023-04-24T01:16:57;9.80;99.90
16198;DHT22;8206;51.440;6.914;2023-04-24T01:19:25;9.80;99.90
16198;DHT22;8206;51.440;6.914;2023-04-24T01:21:53;9.70;99.90
16198;DHT22;8206;51.440;6.914;2023-04-24T01:24:22;9.60;99.90
16198;DHT22;8206;51.440;6.914;2023-04-24T01:26:49;9.50;99.90
16198;DHT22;8206;51.440;6.914;2023-04-24T01:29:16;9.40;99.90
16198;DHT22;8206;51.440;6.914;2023-04-24T01:31:42;9.30;99.90
16198;DHT22;8206;51.440;6.914;2023-04-24T01:34:10;9.30;99.90
16198;DHT22;8206;51.440;6.914;2023-04-24T01:36:37;9.40;99.90
16198;DHT22;8206;51.440;6.914;2023-04-24T01:39:06;9.40;99.90
16198;DHT22;8206;51.440;6.914;2023-04-24T01:41:34;9.40;99.90
16198;DHT22;8206;51.440;6.914;2023-04-24T01:44:01;9.40;99.90
16198;DHT22;8206;51.440;6.914;2023-04-24T01:46:28;9.40;99.90
16198;DHT22;8206;51.440;6.914;2023-04-24T01:48:56;9.30;99.90
16198;DHT22;8206;51.440;6.914;2023-04-24T01:51:23;9.20;99.90
16198;DHT22;8206;51.440;6.914;2023-04-24T01:53:49;9.10;99.90
16198;DHT22;8206;51.440;6.914;2023-04-24T01:56:16;9.10;99.90
16198;DHT22;8206;51.440;6.914;2023-04-24T01:58:45;9.20;99.90
16198;DHT22;8206;51.440;6.914;2023-04-24T02:01:15;9.20;99.90
16198;DHT22;8206;51.440;6.914;2023-04-24T02:03:44;9.20;99.90
16198;DHT22;8206;51.440;6.914;2023-04-24T02:06:10;9.30;99.90
16198;DHT22;8206;51.440;6.914;2023-04-24T02:08:37;9.40;99.90
16198;DHT22;8206;51.440;6.914;2023-04-24T02:11:04;9.40;99.90
16198;DHT22;8206;51.440;6.914;2023-04-24T02:13:31;9.40;99.90
16198;DHT22;8206;51.440;6.914;2023-04-24T02:15:59;9.40;99.90
16198;DHT22;8206;51.440;6.914;2023-04-24T02:18:26;9.40;99.90
16198;DHT22;8206;51.440;6.914;2023-04-24T02:20:53;9.40;99.90
16198;DHT22;8206;51.440;6.914;2023-04-24T02:23:20;9.30;99.90
16198;DHT22;8206;51.440;6.914;2023-04-24T02:25:47;9.40;99.90
16198;DHT22;8206;51.440;6.914;2023-04-24T02:28:14;9.40;99.90
16198;DHT22;8206;51.440;6.914;2023-04-24T02:30:40;9.40;99.90
16198;DHT22;8206;51.440;6.914;2023-04-24T02:33:08;9.40;99.90
16198;DHT22;8206;51.440;6.914;2023-04-24T02:35:35;9.40;99.90
16198;DHT22;8206;51.440;6.914;2023-04-24T02:38:02;9.40;99.90
16198;DHT22;8206;51.440;6.914;2023-04-24T02:40:28;9.50;99.90
16198;DHT22;8206;51.440;6.914;2023-04-24T02:42:55;9.50;99.90
16198;DHT22;8206;51.440;6.914;2023-04-24T02:45:22;9.40;99.90
16198;DHT22;8206;51.440;6.914;2023-04-24T02:47:48;9.40;99.90
16198;DHT22;8206;51.440;6.914;2023-04-24T02:50:17;9.40;99.90
16198;DHT22;8206;51.440;6.914;2023-04-24T02:52:43;9.40;99.90
16198;DHT22;8206;51.440;6.914;2023-04-24T02:55:10;9.40;99.90
16198;DHT22;8206;51.440;6.914;2023-04-24T02:57:37;9.40;99.90
16198;DHT22;8206;51.440;6.914;2023-04-24T03:00:05;9.50;99.90
16198;DHT22;8206;51.440;6.914;2023-04-24T03:02:32;9.50;99.90
16198;DHT22;8206;51.440;6.914;2023-04-24T03:04:59;9.50;99.90
16198;DHT22;8206;51.440;6.914;2023-04-24T03:07:27;9.50;99.90
16198;DHT22;8206;51.440;6.914;2023-04-24T03:09:54;9.50;99.90
16198;DHT22;8206;51.440;6.914;2023-04-24T03:12:21;9.50;99.90
16198;DHT22;8206;51.440;6.914;2023-04-24T03:14:49;9.50;99.90
16198;DHT22;8206;51.440;6.914;2023-04-24T03:17:15;9.40;99.90
16198;DHT22;8206;51.440;6.914;2023-04-24T03:19:42;9.40;99.90
16198;DHT22;8206;51.440;6.914;2023-04-24T03:22:09;9.50;99.90
16198;DHT22;8206;51.440;6.914;2023-04-24T03:24:37;9.50;99.90
16198;DHT22;8206;51.440;6.914;2023-04-24T03:27:04;9.50;99.90
16198;DHT22;8206;51.440;6.914;2023-04-24T03:29:31;9.50;99.90
16198;DHT22;8206;51.440;6.914;2023-04-24T03:31:57;9.50;99.90
16198;DHT22;8206;51.440;6.914;2023-04-24T03:34:24;9.50;99.90
16198;DHT22;8206;51.440;6.914;2023-04-24T03:36:51;9.50;99.90
16198;DHT22;8206;51.440;6.914;2023-04-24T03:39:18;9.50;99.90
16198;DHT22;8206;51.440;6.914;2023-04-24T03:41:46;9.50;99.90
16198;DHT22;8206;51.440;6.914;2023-04-24T03:44:12;9.50;99.90
16198;DHT22;8206;51.440;6.914;2023-04-24T03:46:39;9.50;99.90
16198;DHT22;8206;51.440;6.914;2023-04-24T03:49:06;9.50;99.90
16198;DHT22;8206;51.440;6.914;2023-04-24T03:51:32;9.50;99.90
16198;DHT22;8206;51.440;6.914;2023-04-24T03:53:59;9.50;99.90
16198;DHT22;8206;51.440;6.914;2023-04-24T03:56:26;9.60;99.90
16198;DHT22;8206;51.440;6.914;2023-04-24T03:58:54;9.50;99.90
16198;DHT22;8206;51.440;6.914;2023-04-24T04:01:20;9.60;99.90
16198;DHT22;8206;51.440;6.914;2023-04-24T04:03:47;9.50;99.90
16198;DHT22;8206;51.440;6.914;2023-04-24T04:06:14;9.50;99.90
16198;DHT22;8206;51.440;6.914;2023-04-24T04:08:41;9.50;99.90
16198;DHT22;8206;51.440;6.914;2023-04-24T04:11:07;9.50;99.90
16198;DHT22;8206;51.440;6.914;2023-04-24T04:13:34;9.60;99.90
16198;DHT22;8206;51.440;6.914;2023-04-24T04:16:02;9.50;99.90
16198;DHT22;8206;51.440;6.914;2023-04-24T04:18:29;9.50;99.90
16198;DHT22;8206;51.440;6.914;2023-04-24T04:20:55;9.50;99.90
16198;DHT22;8206;51.440;6.914;2023-04-24T04:23:22;9.60;99.90
16198;DHT22;8206;51.440;6.914;2023-04-24T04:25:49;9.50;99.90
16198;DHT22;8206;51.440;6.914;2023-04-24T04:28:17;9.50;99.90
16198;DHT22;8206;51.440;6.914;2023-04-24T04:30:45;9.50;99.90
16198;DHT22;8206;51.440;6.914;2023-04-24T04:33:13;9.50;99.90
16198;DHT22;8206;51.440;6.914;2023-04-24T04:35:40;9.50;99.90
16198;DHT22;8206;51.440;6.914;2023-04-24T04:38:07;9.50;99.90
16198;DHT22;8206;51.440;6.914;2023-04-24T04:40:36;9.50;99.90
16198;DHT22;8206;51.440;6.914;2023-04-24T04:43:03;9.50;99.90
16198;DHT22;8206;51.440;6.914;2023-04-24T04:45:29;9.50;99.90
16198;DHT22;8206;51.440;6.914;2023-04-24T04:47:58;9.50;99.90
16198;DHT22;8206;51.440;6.914;2023-04-24T04:50:27;9.60;99.90
16198;DHT22;8206;51.440;6.914;2023-04-24T04:52:54;9.60;99.90
16198;DHT22;8206;51.440;6.914;2023-04-24T04:55:21;9.50;99.90
16198;DHT22;8206;51.440;6.914;2023-04-24T04:57:47;9.50;99.90
16198;DHT22;8206;51.440;6.914;2023-04-24T05:00:14;9.50;99.90
16198;DHT22;8206;51.440;6.914;2023-04-24T05:02:41;9.60;99.90
16198;DHT22;8206;51.440;6.914;2023-04-24T05:05:08;9.60;99.90
16198;DHT22;8206;51.440;6.914;2023-04-24T05:07:36;9.50;99.90
16198;DHT22;8206;51.440;6.914;2023-04-24T05:10:04;9.50;99.90
16198;DHT22;8206;51.440;6.914;2023-04-24T05:12:31;9.50;99.90
16198;DHT22;8206;51.440;6.914;2023-04-24T05:14:57;9.50;99.90
16198;DHT22;8206;51.440;6.914;2023-04-24T05:17:24;9.50;99.90
16198;DHT22;8206;51.440;6.914;2023-04-24T05:19:51;9.50;99.90
16198;DHT22;8206;51.440;6.914;2023-04-24T05:22:18;9.50;99.90
16198;DHT22;8206;51.440;6.914;2023-04-24T05:24:47;9.50;99.90
16198;DHT22;8206;51.440;6.914;2023-04-24T05:27:14;9.30;99.90
16198;DHT22;8206;51.440;6.914;2023-04-24T05:29:41;9.30;99.90
16198;DHT22;8206;51.440;6.914;2023-04-24T05:32:08;9.20;99.90
16198;DHT22;8206;51.440;6.914;2023-04-24T05:34:35;9.20;99.90
16198;DHT22;8206;51.440;6.914;2023-04-24T05:37:02;9.10;99.90
16198;DHT22;8206;51.440;6.914;2023-04-24T05:39:29;9.10;99.90
16198;DHT22;8206;51.440;6.914;2023-04-24T05:41:57;9.10;99.90
16198;DHT22;8206;51.440;6.914;2023-04-24T05:44:24;9.10;99.90
16198;DHT22;8206;51.440;6.914;2023-04-24T05:46:51;9.10;99.90
16198;DHT22;8206;51.440;6.914;2023-04-24T05:49:18;9.10;99.90
16198;DHT22;8206;51.440;6.914;2023-04-24T05:51:44;9.10;99.90
16198;DHT22;8206;51.440;6.914;2023-04-24T05:54:11;9.10;99.90
16198;DHT22;8206;51.440;6.914;2023-04-24T05:56:38;9.10;99.90
16198;DHT22;8206;51.440;6.914;2023-04-24T05:59:06;9.10;99.90
16198;DHT22;8206;51.440;6.914;2023-04-24T06:01:33;9.00;99.90
16198;DHT22;8206;51.440;6.914;2023-04-24T06:04:02;9.10;99.90
16198;DHT22;8206;51.440;6.914;2023-04-24T06:06:28;9.10;99.90
16198;DHT22;8206;51.440;6.914;2023-04-24T06:08:55;9.20;99.90
16198;DHT22;8206;51.440;6.914;2023-04-24T06:11:24;9.30;99.90
16198;DHT22;8206;51.440;6.914;2023-04-24T06:13:50;9.30;99.90
16198;DHT22;8206;51.440;6.914;2023-04-24T06:16:18;9.20;99.90
16198;DHT22;8206;51.440;6.914;2023-04-24T06:18:45;9.20;99.90
16198;DHT22;8206;51.440;6.914;2023-04-24T06:21:12;9.20;99.90
16198;DHT22;8206;51.440;6.914;2023-04-24T06:23:39;9.10;99.90
16198;DHT22;8206;51.440;6.914;2023-04-24T06:26:06;9.10;99.90
16198;DHT22;8206;51.440;6.914;2023-04-24T06:28:33;9.10;99.90
16198;DHT22;8206;51.440;6.914;2023-04-24T06:31:00;9.20;99.90
16198;DHT22;8206;51.440;6.914;2023-04-24T06:33:28;9.20;99.90
16198;DHT22;8206;51.440;6.914;2023-04-24T06:35:55;9.20;99.90
16198;DHT22;8206;51.440;6.914;2023-04-24T06:38:22;9.30;99.90
16198;DHT22;8206;51.440;6.914;2023-04-24T06:40:48;9.40;99.90
16198;DHT22;8206;51.440;6.914;2023-04-24T06:43:15;9.50;99.90
16198;DHT22;8206;51.440;6.914;2023-04-24T06:45:42;9.60;99.90
16198;DHT22;8206;51.440;6.914;2023-04-24T06:48:09;9.60;99.90
16198;DHT22;8206;51.440;6.914;2023-04-24T06:50:37;9.70;99.90
16198;DHT22;8206;51.440;6.914;2023-04-24T06:53:04;9.70;99.90
16198;DHT22;8206;51.440;6.914;2023-04-24T06:55:31;9.60;99.90
16198;DHT22;8206;51.440;6.914;2023-04-24T06:57:58;9.50;99.90
16198;DHT22;8206;51.440;6.914;2023-04-24T07:00:25;9.30;99.90
16198;DHT22;8206;51.440;6.914;2023-04-24T07:02:51;9.20;99.90
16198;DHT22;8206;51.440;6.914;2023-04-24T07:05:18;9.20;99.90
16198;DHT22;8206;51.440;6.914;2023-04-24T07:07:47;9.30;99.90
16198;DHT22;8206;51.440;6.914;2023-04-24T07:10:15;9.30;99.90
16198;DHT22;8206;51.440;6.914;2023-04-24T07:12:41;9.40;99.90
16198;DHT22;8206;51.440;6.914;2023-04-24T07:15:09;9.50;99.90
16198;DHT22;8206;51.440;6.914;2023-04-24T07:17:36;9.60;99.90
16198;DHT22;8206;51.440;6.914;2023-04-24T07:20:04;9.60;99.90
16198;DHT22;8206;51.440;6.914;2023-04-24T07:22:34;9.50;99.90
16198;DHT22;8206;51.440;6.914;2023-04-24T07:25:03;9.50;99.90
16198;DHT22;8206;51.440;6.914;2023-04-24T07:27:30;9.30;99.90
16198;DHT22;8206;51.440;6.914;2023-04-24T07:29:57;9.20;99.90
16198;DHT22;8206;51.440;6.914;2023-04-24T07:32:23;9.10;99.90
16198;DHT22;8206;51.440;6.914;2023-04-24T07:34:50;9.00;99.90
16198;DHT22;8206;51.440;6.914;2023-04-24T07:37:17;9.00;99.90
16198;DHT22;8206;51.440;6.914;2023-04-24T07:39:44;9.00;99.90
16198;DHT22;8206;51.440;6.914;2023-04-24T07:42:12;9.20;99.90
16198;DHT22;8206;51.440;6.914;2023-04-24T07:44:38;9.40;99.90
16198;DHT22;8206;51.440;6.914;2023-04-24T07:47:05;9.60;99.90
16198;DHT22;8206;51.440;6.914;2023-04-24T07:49:32;9.80;99.90
16198;DHT22;8206;51.440;6.914;2023-04-24T07:51:59;9.90;99.90
16198;DHT22;8206;51.440;6.914;2023-04-24T07:54:27;9.80;99.90
16198;DHT22;8206;51.440;6.914;2023-04-24T07:56:55;9.60;99.90
16198;DHT22;8206;51.440;6.914;2023-04-24T07:59:23;9.50;99.90
16198;DHT22;8206;51.440;6.914;2023-04-24T08:01:49;9.50;99.90
16198;DHT22;8206;51.440;6.914;2023-04-24T08:04:16;9.50;99.90
16198;DHT22;8206;51.440;6.914;2023-04-24T08:06:43;9.30;99.90
16198;DHT22;8206;51.440;6.914;2023-04-24T08:09:10;9.10;99.90
16198;DHT22;8206;51.440;6.914;2023-04-24T08:11:37;9.10;99.90
16198;DHT22;8206;51.440;6.914;2023-04-24T08:14:03;9.00;99.90
16198;DHT22;8206;51.440;6.914;2023-04-24T08:16:32;9.00;99.90
16198;DHT22;8206;51.440;6.914;2023-04-24T08:18:59;8.90;99.90
16198;DHT22;8206;51.440;6.914;2023-04-24T08:21:25;8.90;99.90
16198;DHT22;8206;51.440;6.914;2023-04-24T08:23:52;8.90;99.90
16198;DHT22;8206;51.440;6.914;2023-04-24T08:26:19;8.80;99.90
16198;DHT22;8206;51.440;6.914;2023-04-24T08:28:46;8.90;99.90
16198;DHT22;8206;51.440;6.914;2023-04-24T08:31:12;8.90;99.90
16198;DHT22;8206;51.440;6.914;2023-04-24T08:33:40;8.80;99.90
16198;DHT22;8206;51.440;6.914;2023-04-24T08:36:07;8.80;99.90
16198;DHT22;8206;51.440;6.914;2023-04-24T08:38:34;8.70;99.90
16198;DHT22;8206;51.440;6.914;2023-04-24T08:41:01;8.80;99.90
16198;DHT22;8206;51.440;6.914;2023-04-24T08:43:29;8.90;99.90
16198;DHT22;8206;51.440;6.914;2023-04-24T08:45:59;8.90;99.90
16198;DHT22;8206;51.440;6.914;2023-04-24T08:48:27;8.90;99.90
16198;DHT22;8206;51.440;6.914;2023-04-24T08:50:56;8.90;99.90
16198;DHT22;8206;51.440;6.914;2023-04-24T08:53:25;9.00;99.90
16198;DHT22;8206;51.440;6.914;2023-04-24T08:55:54;9.10;99.90
16198;DHT22;8206;51.440;6.914;2023-04-24T08:58:20;9.40;99.90
16198;DHT22;8206;51.440;6.914;2023-04-24T09:00:48;9.50;99.90
16198;DHT22;8206;51.440;6.914;2023-04-24T09:03:15;9.60;99.90
16198;DHT22;8206;51.440;6.914;2023-04-24T09:05:42;9.90;99.90
16198;DHT22;8206;51.440;6.914;2023-04-24T09:08:12;10.10;99.90
16198;DHT22;8206;51.440;6.914;2023-04-24T09:10:40;9.80;99.90
16198;DHT22;8206;51.440;6.914;2023-04-24T09:13:07;9.60;99.90
16198;DHT22;8206;51.440;6.914;2023-04-24T09:15:35;9.40;99.90
16198;DHT22;8206;51.440;6.914;2023-04-24T09:18:04;9.40;99.90
16198;DHT22;8206;51.440;6.914;2023-04-24T09:20:31;9.30;99.90
16198;DHT22;8206;51.440;6.914;2023-04-24T09:22:58;9.20;99.90
16198;DHT22;8206;51.440;6.914;2023-04-24T09:25:31;9.20;99.90
16198;DHT22;8206;51.440;6.914;2023-04-24T09:28:00;9.20;99.90
16198;DHT22;8206;51.440;6.914;2023-04-24T09:30:28;9.20;99.90
16198;DHT22;8206;51.440;6.914;2023-04-24T09:33:12;9.00;99.90
16198;DHT22;8206;51.440;6.914;2023-04-24T09:35:40;9.00;99.90
16198;DHT22;8206;51.440;6.914;2023-04-24T09:38:08;8.90;99.90
16198;DHT22;8206;51.440;6.914;2023-04-24T09:40:36;8.90;99.90
16198;DHT22;8206;51.440;6.914;2023-04-24T09:43:03;8.90;99.90
16198;DHT22;8206;51.440;6.914;2023-04-24T09:45:35;8.90;99.90
16198;DHT22;8206;51.440;6.914;2023-04-24T09:48:03;8.80;99.90
16198;DHT22;8206;51.440;6.914;2023-04-24T09:50:30;8.70;99.90
16198;DHT22;8206;51.440;6.914;2023-04-24T09:53:02;8.80;99.90
16198;DHT22;8206;51.440;6.914;2023-04-24T09:55:30;8.80;99.90
16198;DHT22;8206;51.440;6.914;2023-04-24T09:57:59;8.80;65.80
16198;DHT22;8206;51.440;6.914;2023-04-24T10:00:28;8.80;99.90
16198;DHT22;8206;51.440;6.914;2023-04-24T10:02:56;8.80;99.90
16198;DHT22;8206;51.440;6.914;2023-04-24T10:05:28;8.80;99.90
16198;DHT22;8206;51.440;6.914;2023-04-24T10:08:00;8.80;99.90
16198;DHT22;8206;51.440;6.914;2023-04-24T10:10:28;8.80;99.90
16198;DHT22;8206;51.440;6.914;2023-04-24T10:12:55;8.80;99.90
16198;DHT22;8206;51.440;6.914;2023-04-24T10:15:24;8.80;99.90
16198;DHT22;8206;51.440;6.914;2023-04-24T10:17:52;8.80;99.90
16198;DHT22;8206;51.440;6.914;2023-04-24T10:20:20;8.80;99.90
16198;DHT22;8206;51.440;6.914;2023-04-24T10:22:49;9.00;99.90
16198;DHT22;8206;51.440;6.914;2023-04-24T10:25:20;9.20;99.90
16198;DHT22;8206;51.440;6.914;2023-04-24T10:27:48;9.30;99.90
16198;DHT22;8206;51.440;6.914;2023-04-24T10:30:15;9.40;1.00
16198;DHT22;8206;51.440;6.914;2023-04-24T10:32:44;9.50;1.00
16198;DHT22;8206;51.440;6.914;2023-04-24T10:35:13;9.50;99.90
16198;DHT22;8206;51.440;6.914;2023-04-24T10:37:43;9.40;37.50
16198;DHT22;8206;51.440;6.914;2023-04-24T10:40:12;9.30;99.90
16198;DHT22;8206;51.440;6.914;2023-04-24T10:42:42;9.30;1.00
16198;DHT22;8206;51.440;6.914;2023-04-24T10:45:16;9.30;99.90
16198;DHT22;8206;51.440;6.914;2023-04-24T10:47:51;9.30;99.90
16198;DHT22;8206;51.440;6.914;2023-04-24T10:50:18;9.40;99.90
16198;DHT22;8206;51.440;6.914;2023-04-24T10:52:45;9.50;99.90
16198;DHT22;8206;51.440;6.914;2023-04-24T10:55:13;9.70;99.90
16198;DHT22;8206;51.440;6.914;2023-04-24T10:57:39;10.00;99.90
16198;DHT22;8206;51.440;6.914;2023-04-24T11:00:14;10.10;99.90
16198;DHT22;8206;51.440;6.914;2023-04-24T11:02:41;10.20;99.90
16198;DHT22;8206;51.440;6.914;2023-04-24T11:05:15;10.20;99.90
16198;DHT22;8206;51.440;6.914;2023-04-24T11:08:09;10.30;99.90
16198;DHT22;8206;51.440;6.914;2023-04-24T11:10:41;10.40;99.90
16198;DHT22;8206;51.440;6.914;2023-04-24T11:13:10;10.40;99.90
16198;DHT22;8206;51.440;6.914;2023-04-24T11:15:36;10.40;99.90
16198;DHT22;8206;51.440;6.914;2023-04-24T11:18:03;10.50;99.90
16198;DHT22;8206;51.440;6.914;2023-04-24T11:20:31;10.50;99.90
16198;DHT22;8206;51.440;6.914;2023-04-24T11:23:03;10.60;99.90
16198;DHT22;8206;51.440;6.914;2023-04-24T11:25:31;10.50;99.90
16198;DHT22;8206;51.440;6.914;2023-04-24T11:28:03;10.40;1.00
16198;DHT22;8206;51.440;6.914;2023-04-24T11:30:32;10.20;99.90
16198;DHT22;8206;51.440;6.914;2023-04-24T11:33:02;10.00;99.90
16198;DHT22;8206;51.440;6.914;2023-04-24T11:35:35;9.80;1.00
16198;DHT22;8206;51.440;6.914;2023-04-24T11:38:04;9.70;1.00
16198;DHT22;8206;51.440;6.914;2023-04-24T11:40:31;9.50;11.10
16198;DHT22;8206;51.440;6.914;2023-04-24T11:43:00;9.40;1.00
16198;DHT22;8206;51.440;6.914;2023-04-24T11:45:29;9.40;99.90
16198;DHT22;8206;51.440;6.914;2023-04-24T11:47:56;9.40;99.90
16198;DHT22;8206;51.440;6.914;2023-04-24T11:50:25;9.50;99.90
16198;DHT22;8206;51.440;6.914;2023-04-24T11:52:54;9.80;99.90
16198;DHT22;8206;51.440;6.914;2023-04-24T11:55:26;10.10;99.90
16198;DHT22;8206;51.440;6.914;2023-04-24T11:57:54;10.60;99.90
16198;DHT22;8206;51.440;6.914;2023-04-24T12:00:24;10.90;99.90
16198;DHT22;8206;51.440;6.914;2023-04-24T12:03:03;11.20;99.90
16198;DHT22;8206;51.440;6.914;2023-04-24T12:05:31;11.40;99.90
16198;DHT22;8206;51.440;6.914;2023-04-24T12:07:59;11.70;99.90
16198;DHT22;8206;51.440;6.914;2023-04-24T12:10:26;11.80;99.90
16198;DHT22;8206;51.440;6.914;2023-04-24T12:12:56;11.80;99.90
16198;DHT22;8206;51.440;6.914;2023-04-24T12:15:23;12.00;99.90
16198;DHT22;8206;51.440;6.914;2023-04-24T12:17:51;12.00;99.90
16198;DHT22;8206;51.440;6.914;2023-04-24T12:20:24;11.70;99.90
16198;DHT22;8206;51.440;6.914;2023-04-24T12:22:52;11.30;99.90
16198;DHT22;8206;51.440;6.914;2023-04-24T12:25:22;10.90;99.90
16198;DHT22;8206;51.440;6.914;2023-04-24T12:27:53;10.60;99.90
16198;DHT22;8206;51.440;6.914;2023-04-24T12:30:20;10.50;99.90
16198;DHT22;8206;51.440;6.914;2023-04-24T12:32:48;10.50;99.90
16198;DHT22;8206;51.440;6.914;2023-04-24T12:35:20;10.50;99.90
16198;DHT22;8206;51.440;6.914;2023-04-24T12:37:47;10.40;99.90
16198;DHT22;8206;51.440;6.914;2023-04-24T12:40:14;10.40;99.90
16198;DHT22;8206;51.440;6.914;2023-04-24T12:42:44;10.60;99.90
16198;DHT22;8206;51.440;6.914;2023-04-24T12:45:11;11.00;99.90
16198;DHT22;8206;51.440;6.914;2023-04-24T12:47:39;11.30;99.90
16198;DHT22;8206;51.440;6.914;2023-04-24T12:50:07;11.50;99.90
16198;DHT22;8206;51.440;6.914;2023-04-24T12:52:34;11.50;99.90
16198;DHT22;8206;51.440;6.914;2023-04-24T12:55:01;11.60;99.90
16198;DHT22;8206;51.440;6.914;2023-04-24T12:57:29;11.60;99.90
16198;DHT22;8206;51.440;6.914;2023-04-24T12:59:58;11.70;99.90
16198;DHT22;8206;51.440;6.914;2023-04-24T13:02:26;12.00;99.90
16198;DHT22;8206;51.440;6.914;2023-04-24T13:04:53;12.10;99.90
16198;DHT22;8206;51.440;6.914;2023-04-24T13:07:20;12.20;99.90
16198;DHT22;8206;51.440;6.914;2023-04-24T13:09:47;12.20;99.90
16198;DHT22;8206;51.440;6.914;2023-04-24T13:12:14;12.10;99.90
16198;DHT22;8206;51.440;6.914;2023-04-24T13:14:41;11.80;99.90
16198;DHT22;8206;51.440;6.914;2023-04-24T13:17:09;11.60;99.90
16198;DHT22;8206;51.440;6.914;2023-04-24T13:19:38;11.50;99.90
16198;DHT22;8206;51.440;6.914;2023-04-24T13:22:05;11.40;99.90
16198;DHT22;8206;51.440;6.914;2023-04-24T13:24:31;11.30;99.90
16198;DHT22;8206;51.440;6.914;2023-04-24T13:26:58;11.30;99.90
16198;DHT22;8206;51.440;6.914;2023-04-24T13:29:26;11.20;99.90
16198;DHT22;8206;51.440;6.914;2023-04-24T13:31:53;11.30;99.90
16198;DHT22;8206;51.440;6.914;2023-04-24T13:34:22;11.40;99.90
16198;DHT22;8206;51.440;6.914;2023-04-24T13:36:49;11.40;99.90
16198;DHT22;8206;51.440;6.914;2023-04-24T13:39:16;11.30;99.90
16198;DHT22;8206;51.440;6.914;2023-04-24T13:41:43;11.10;99.90
16198;DHT22;8206;51.440;6.914;2023-04-24T13:44:10;11.10;99.90
16198;DHT22;8206;51.440;6.914;2023-04-24T13:46:37;11.00;99.90
16198;DHT22;8206;51.440;6.914;2023-04-24T13:49:04;11.00;99.90
16198;DHT22;8206;51.440;6.914;2023-04-24T13:51:32;11.10;99.90
16198;DHT22;8206;51.440;6.914;2023-04-24T13:53:59;11.30;99.90
16198;DHT22;8206;51.440;6.914;2023-04-24T13:56:26;11.40;99.90
16198;DHT22;8206;51.440;6.914;2023-04-24T13:58:53;11.60;99.90
16198;DHT22;8206;51.440;6.914;2023-04-24T14:01:20;11.80;99.90
16198;DHT22;8206;51.440;6.914;2023-04-24T14:03:49;12.00;99.90
16198;DHT22;8206;51.440;6.914;2023-04-24T14:06:16;12.20;99.90
16198;DHT22;8206;51.440;6.914;2023-04-24T14:08:44;12.20;99.90
16198;DHT22;8206;51.440;6.914;2023-04-24T14:11:11;12.40;99.90
16198;DHT22;8206;51.440;6.914;2023-04-24T14:13:39;12.50;99.90
16198;DHT22;8206;51.440;6.914;2023-04-24T14:16:07;12.60;99.90
16198;DHT22;8206;51.440;6.914;2023-04-24T14:18:34;12.50;99.90
16198;DHT22;8206;51.440;6.914;2023-04-24T14:21:01;12.30;99.90
16198;DHT22;8206;51.440;6.914;2023-04-24T14:23:28;12.20;99.90
16198;DHT22;8206;51.440;6.914;2023-04-24T14:25:56;12.30;99.90
16198;DHT22;8206;51.440;6.914;2023-04-24T14:28:24;12.20;99.90
16198;DHT22;8206;51.440;6.914;2023-04-24T14:30:51;12.10;99.90
16198;DHT22;8206;51.440;6.914;2023-04-24T14:33:19;11.80;99.90
16198;DHT22;8206;51.440;6.914;2023-04-24T14:35:46;11.50;99.90
16198;DHT22;8206;51.440;6.914;2023-04-24T14:38:12;11.30;99.90
16198;DHT22;8206;51.440;6.914;2023-04-24T14:40:40;11.10;99.90
16198;DHT22;8206;51.440;6.914;2023-04-24T14:43:08;10.90;99.90
16198;DHT22;8206;51.440;6.914;2023-04-24T14:45:35;10.80;99.90
16198;DHT22;8206;51.440;6.914;2023-04-24T14:48:03;10.60;99.90
16198;DHT22;8206;51.440;6.914;2023-04-24T14:50:29;10.60;99.90
16198;DHT22;8206;51.440;6.914;2023-04-24T14:52:56;10.50;99.90
16198;DHT22;8206;51.440;6.914;2023-04-24T14:55:23;10.30;99.90
16198;DHT22;8206;51.440;6.914;2023-04-24T14:57:51;10.10;99.90
16198;DHT22;8206;51.440;6.914;2023-04-24T15:00:20;10.10;99.90
16198;DHT22;8206;51.440;6.914;2023-04-24T15:02:48;10.10;99.90
16198;DHT22;8206;51.440;6.914;2023-04-24T15:05:15;10.10;99.90
16198;DHT22;8206;51.440;6.914;2023-04-24T15:07:42;10.20;99.90
16198;DHT22;8206;51.440;6.914;2023-04-24T15:10:09;10.30;99.90
16198;DHT22;8206;51.440;6.914;2023-04-24T15:12:36;10.50;99.90
16198;DHT22;8206;51.440;6.914;2023-04-24T15:15:03;10.80;99.90
16198;DHT22;8206;51.440;6.914;2023-04-24T15:17:32;11.10;99.90
16198;DHT22;8206;51.440;6.914;2023-04-24T15:19:58;11.30;99.90
16198;DHT22;8206;51.440;6.914;2023-04-24T15:22:26;11.50;99.90
16198;DHT22;8206;51.440;6.914;2023-04-24T15:24:52;11.70;99.90
16198;DHT22;8206;51.440;6.914;2023-04-24T15:27:19;11.80;99.90
16198;DHT22;8206;51.440;6.914;2023-04-24T15:29:46;11.90;99.90
16198;DHT22;8206;51.440;6.914;2023-04-24T15:32:12;11.80;99.90
16198;DHT22;8206;51.440;6.914;2023-04-24T15:34:40;11.80;99.90
16198;DHT22;8206;51.440;6.914;2023-04-24T15:37:07;12.00;99.90
16198;DHT22;8206;51.440;6.914;2023-04-24T15:39:34;12.10;99.90
16198;DHT22;8206;51.440;6.914;2023-04-24T15:42:00;12.20;99.90
16198;DHT22;8206;51.440;6.914;2023-04-24T15:44:27;12.10;99.90
16198;DHT22;8206;51.440;6.914;2023-04-24T15:46:54;11.80;99.90
16198;DHT22;8206;51.440;6.914;2023-04-24T15:49:21;11.60;99.90
16198;DHT22;8206;51.440;6.914;2023-04-24T15:51:49;11.40;99.90
16198;DHT22;8206;51.440;6.914;2023-04-24T15:54:16;11.30;99.90
16198;DHT22;8206;51.440;6.914;2023-04-24T15:56:43;11.30;99.90
16198;DHT22;8206;51.440;6.914;2023-04-24T15:59:10;11.20;99.90